createdAt,value
2023-07-19T00:01:34.354Z,16.91
2023-07-19T00:04:00.938Z,16.93
2023-07-19T00:06:27.419Z,16.73
2023-07-19T00:08:53.919Z,16.81
2023-07-19T00:11:20.626Z,16.69
2023-07-19T00:13:47.351Z,16.79
2023-07-19T00:16:13.907Z,16.65
2023-07-19T00:18:40.407Z,16.71
2023-07-19T00:21:07.055Z,16.68
2023-07-19T00:23:33.600Z,16.77
2023-07-19T00:26:00.181Z,16.76
2023-07-19T00:28:26.774Z,16.71
2023-07-19T00:31:03.350Z,16.65
2023-07-19T00:33:29.845Z,16.63
2023-07-19T00:35:56.347Z,16.70
2023-07-19T00:38:22.952Z,16.60
2023-07-19T00:40:50.133Z,16.44
2023-07-19T00:43:16.828Z,16.53
2023-07-19T00:45:53.438Z,16.59
2023-07-19T00:48:20.068Z,16.53
2023-07-19T00:50:46.607Z,16.56
2023-07-19T00:53:13.129Z,16.60
2023-07-19T00:55:39.828Z,16.53
2023-07-19T00:58:06.375Z,16.43
2023-07-19T01:00:33.023Z,16.54
2023-07-19T01:03:00.225Z,16.55
2023-07-19T01:05:27.855Z,16.46
2023-07-19T01:07:54.818Z,16.44
2023-07-19T01:10:21.331Z,16.39
2023-07-19T01:13:09.877Z,16.52
2023-07-19T01:15:37.282Z,16.32
2023-07-19T01:18:04.022Z,16.47
2023-07-19T01:20:30.623Z,16.37
2023-07-19T01:22:57.372Z,16.28
2023-07-19T01:25:24.220Z,16.50
2023-07-19T01:27:50.771Z,16.47
2023-07-19T01:30:17.266Z,16.39
2023-07-19T01:32:44.461Z,16.18
2023-07-19T01:35:11.034Z,16.00
2023-07-19T01:37:37.581Z,16.28
2023-07-19T01:40:07.527Z,16.25
2023-07-19T01:42:34.032Z,16.29
2023-07-19T01:45:02.187Z,16.20
2023-07-19T01:47:29.003Z,16.18
2023-07-19T01:49:55.557Z,16.13
2023-07-19T01:52:22.290Z,16.08
2023-07-19T01:54:48.799Z,16.11
2023-07-19T01:57:15.935Z,16.09
2023-07-19T01:59:42.470Z,16.12
2023-07-19T02:02:09.110Z,16.12
2023-07-19T02:04:35.700Z,16.04
2023-07-19T02:07:02.188Z,15.91
2023-07-19T02:09:28.807Z,15.96
2023-07-19T02:11:55.424Z,15.83
2023-07-19T02:14:22.303Z,15.77
2023-07-19T02:16:48.825Z,16.06
2023-07-19T02:19:15.366Z,16.03
2023-07-19T02:21:42.129Z,16.03
2023-07-19T02:24:08.614Z,16.05
2023-07-19T02:26:35.125Z,16.03
2023-07-19T02:29:01.814Z,16.02
2023-07-19T02:31:28.360Z,15.92
2023-07-19T02:33:54.895Z,15.91
2023-07-19T02:36:21.412Z,15.91
2023-07-19T02:38:47.907Z,15.81
2023-07-19T02:41:14.432Z,15.70
2023-07-19T02:43:40.920Z,15.88
2023-07-19T02:46:07.474Z,15.80
2023-07-19T02:48:33.984Z,15.81
2023-07-19T02:51:00.542Z,15.76
2023-07-19T02:53:27.221Z,15.84
2023-07-19T02:55:53.764Z,15.74
2023-07-19T02:58:20.237Z,15.73
2023-07-19T03:00:46.810Z,15.57
2023-07-19T03:03:13.897Z,15.68
2023-07-19T03:05:43.415Z,15.79
2023-07-19T03:08:10.029Z,15.83
2023-07-19T03:10:37.105Z,15.67
2023-07-19T03:13:04.099Z,15.81
2023-07-19T03:15:33.993Z,15.78
2023-07-19T03:18:01.440Z,15.78
2023-07-19T03:20:29.004Z,15.81
2023-07-19T03:22:56.395Z,15.77
2023-07-19T03:25:24.026Z,15.68
2023-07-19T03:27:50.893Z,15.67
2023-07-19T03:30:17.501Z,15.67
2023-07-19T03:32:44.063Z,15.62
2023-07-19T03:35:10.673Z,15.71
2023-07-19T03:37:37.350Z,15.74
2023-07-19T03:40:05.356Z,15.73
2023-07-19T03:42:32.251Z,15.67
2023-07-19T03:44:58.752Z,15.80
2023-07-19T03:47:26.363Z,15.66
2023-07-19T03:49:52.936Z,15.72
2023-07-19T03:52:19.486Z,15.72
2023-07-19T03:54:45.974Z,15.75
2023-07-19T03:57:12.514Z,15.78
2023-07-19T03:59:39.019Z,15.74
2023-07-19T04:02:05.879Z,15.77
2023-07-19T04:04:32.538Z,15.68
2023-07-19T04:06:59.167Z,15.78
2023-07-19T04:09:25.744Z,15.84
2023-07-19T04:11:52.271Z,15.84
2023-07-19T04:14:18.823Z,15.75
2023-07-19T04:16:46.255Z,15.86
2023-07-19T04:19:13.182Z,15.75
2023-07-19T04:21:39.684Z,15.74
2023-07-19T04:24:06.440Z,15.78
2023-07-19T04:26:32.953Z,15.79
2023-07-19T04:28:59.512Z,15.80
2023-07-19T04:31:26.003Z,15.85
2023-07-19T04:33:52.553Z,15.82
2023-07-19T04:36:19.425Z,15.84
2023-07-19T04:38:46.257Z,15.85
2023-07-19T04:41:12.776Z,15.96
2023-07-19T04:43:39.326Z,15.88
2023-07-19T04:46:06.194Z,15.98
2023-07-19T04:48:32.792Z,15.94
2023-07-19T04:50:59.439Z,15.96
2023-07-19T04:53:26.434Z,16.05
2023-07-19T04:55:53.654Z,15.89
2023-07-19T04:58:20.221Z,16.11
2023-07-19T05:00:46.799Z,16.11
2023-07-19T05:03:13.468Z,16.09
2023-07-19T05:05:40.355Z,16.19
2023-07-19T05:08:07.333Z,16.32
2023-07-19T05:10:37.950Z,16.49
2023-07-19T05:13:05.473Z,16.56
2023-07-19T05:15:32.619Z,16.70
2023-07-19T05:18:00.719Z,16.73
2023-07-19T05:20:27.434Z,16.82
2023-07-19T05:22:53.973Z,16.86
2023-07-19T05:25:20.469Z,16.99
2023-07-19T05:27:47.039Z,16.85
2023-07-19T05:30:13.741Z,17.07
2023-07-19T05:32:40.304Z,17.14
2023-07-19T05:35:07.843Z,17.06
2023-07-19T05:37:34.359Z,17.21
2023-07-19T05:40:00.854Z,17.25
2023-07-19T05:42:27.434Z,17.20
2023-07-19T05:44:53.990Z,17.33
2023-07-19T05:47:20.515Z,17.29
2023-07-19T05:49:47.091Z,17.32
2023-07-19T05:52:13.577Z,17.47
2023-07-19T05:54:40.101Z,17.48
2023-07-19T05:57:06.664Z,17.47
2023-07-19T05:59:33.826Z,17.29
2023-07-19T06:02:00.415Z,17.53
2023-07-19T06:04:27.755Z,17.38
2023-07-19T06:06:54.368Z,17.29
2023-07-19T06:09:20.852Z,17.40
2023-07-19T06:11:47.361Z,17.29
2023-07-19T06:14:13.848Z,17.41
2023-07-19T06:16:40.756Z,17.48
2023-07-19T06:19:07.327Z,17.44
2023-07-19T06:21:33.839Z,17.48
2023-07-19T06:24:00.386Z,17.55
2023-07-19T06:26:26.952Z,17.78
2023-07-19T06:28:54.214Z,17.86
2023-07-19T06:31:20.987Z,18.02
2023-07-19T06:33:47.759Z,18.21
2023-07-19T06:36:14.253Z,18.19
2023-07-19T06:38:40.876Z,18.47
2023-07-19T06:41:07.554Z,18.58
2023-07-19T06:43:34.292Z,18.63
2023-07-19T06:46:00.870Z,18.85
2023-07-19T06:48:27.402Z,18.88
2023-07-19T06:50:53.926Z,19.06
2023-07-19T06:53:20.467Z,19.18
2023-07-19T06:55:47.010Z,19.15
2023-07-19T06:58:13.520Z,19.33
2023-07-19T07:00:40.144Z,19.60
2023-07-19T07:03:06.855Z,19.79
2023-07-19T07:05:34.660Z,19.76
2023-07-19T07:08:01.167Z,20.22
2023-07-19T07:10:27.685Z,20.46
2023-07-19T07:12:54.194Z,20.50
2023-07-19T07:15:20.700Z,20.87
2023-07-19T07:17:49.832Z,21.01
2023-07-19T07:20:16.260Z,21.32
2023-07-19T07:22:42.819Z,21.52
2023-07-19T07:25:09.941Z,21.61
2023-07-19T07:27:36.652Z,22.03
2023-07-19T07:30:03.423Z,22.40
2023-07-19T07:32:30.031Z,22.95
2023-07-19T07:34:56.616Z,24.06
2023-07-19T07:37:23.129Z,25.09
2023-07-19T07:39:49.670Z,25.45
2023-07-19T07:42:16.200Z,25.67
2023-07-19T07:44:42.693Z,26.00
2023-07-19T07:47:09.234Z,26.11
2023-07-19T07:49:35.774Z,26.75
2023-07-19T07:52:02.852Z,27.68
2023-07-19T07:54:29.348Z,28.56
2023-07-19T07:56:56.001Z,29.37
2023-07-19T07:59:22.574Z,30.14
2023-07-19T08:01:49.092Z,31.06
2023-07-19T08:04:15.594Z,31.62
2023-07-19T08:06:42.297Z,32.03
2023-07-19T08:09:08.870Z,32.54
2023-07-19T08:11:35.449Z,33.04
2023-07-19T08:14:02.404Z,33.41
2023-07-19T08:16:29.369Z,33.92
2023-07-19T08:18:56.037Z,34.35
2023-07-19T08:21:35.288Z,34.46
2023-07-19T08:24:03.130Z,34.80
2023-07-19T08:26:29.665Z,35.24
2023-07-19T08:28:56.225Z,35.65
2023-07-19T08:31:24.787Z,35.91
2023-07-19T08:33:55.565Z,36.28
2023-07-19T08:36:22.086Z,36.72
2023-07-19T08:38:48.725Z,36.90
2023-07-19T08:41:18.145Z,37.18
2023-07-19T08:43:45.081Z,37.17
2023-07-19T08:46:16.470Z,37.51
2023-07-19T08:48:48.235Z,37.79
2023-07-19T08:51:15.765Z,37.63
2023-07-19T08:53:42.149Z,37.78
2023-07-19T08:56:08.638Z,38.02
2023-07-19T08:58:35.769Z,37.96
2023-07-19T09:01:02.298Z,38.08
2023-07-19T09:03:28.848Z,38.40
2023-07-19T09:05:55.406Z,38.60
2023-07-19T09:08:21.956Z,38.86
2023-07-19T09:10:48.597Z,38.78
2023-07-19T09:13:19.611Z,38.86
2023-07-19T09:15:48.576Z,39.13
2023-07-19T09:18:15.280Z,39.27
2023-07-19T09:20:41.975Z,39.34
2023-07-19T09:23:08.555Z,39.43
2023-07-19T09:25:50.961Z,39.34
2023-07-19T09:28:23.229Z,39.29
2023-07-19T09:31:23.460Z,39.04
2023-07-19T09:33:54.284Z,38.26
2023-07-19T09:36:20.986Z,37.64
2023-07-19T09:38:47.801Z,36.88
2023-07-19T09:41:14.307Z,36.20
2023-07-19T09:43:40.872Z,35.72
2023-07-19T09:46:07.401Z,35.05
2023-07-19T09:48:33.867Z,34.43
2023-07-19T09:51:02.030Z,34.04
2023-07-19T09:53:28.347Z,33.95
2023-07-19T09:55:54.866Z,33.66
2023-07-19T09:58:21.924Z,33.43
2023-07-19T10:00:48.403Z,33.04
2023-07-19T10:03:22.256Z,32.76
2023-07-19T10:05:57.745Z,32.52
2023-07-19T10:08:24.248Z,32.25
2023-07-19T10:10:56.902Z,31.81
2023-07-19T10:13:32.143Z,31.46
2023-07-19T10:15:58.760Z,31.28
2023-07-19T10:18:25.896Z,31.07
2023-07-19T10:21:04.193Z,31.09
2023-07-19T10:23:35.676Z,30.91
2023-07-19T10:26:07.350Z,30.81
2023-07-19T10:28:33.906Z,30.66
2023-07-19T10:31:17.335Z,30.61
2023-07-19T10:33:47.871Z,30.38
2023-07-19T10:36:15.424Z,30.18
2023-07-19T10:38:42.049Z,29.99
2023-07-19T10:41:10.127Z,29.83
2023-07-19T10:43:48.354Z,29.47
2023-07-19T10:46:19.722Z,29.23
2023-07-19T10:48:46.681Z,29.08
2023-07-19T10:51:13.286Z,29.08
2023-07-19T10:53:49.211Z,28.99
2023-07-19T10:56:20.465Z,28.92
2023-07-19T10:58:47.380Z,28.85
2023-07-19T11:01:14.158Z,28.85
2023-07-19T11:03:43.612Z,28.72
2023-07-19T11:06:10.441Z,28.48
2023-07-19T11:08:36.986Z,28.37
2023-07-19T11:11:03.609Z,28.36
2023-07-19T11:13:31.707Z,28.22
2023-07-19T11:15:59.058Z,28.04
2023-07-19T11:18:30.372Z,28.08
2023-07-19T11:20:58.405Z,28.09
2023-07-19T11:23:25.824Z,28.07
2023-07-19T11:25:52.322Z,28.00
2023-07-19T11:28:45.797Z,27.94
2023-07-19T11:31:34.894Z,27.95
2023-07-19T11:34:20.351Z,27.93
2023-07-19T11:36:47.694Z,27.80
2023-07-19T11:39:15.471Z,27.79
2023-07-19T11:41:49.634Z,27.78
2023-07-19T11:44:20.293Z,27.71
2023-07-19T11:46:47.649Z,27.61
2023-07-19T11:49:14.226Z,27.58
2023-07-19T11:51:41.399Z,27.52
2023-07-19T11:54:07.919Z,27.50
2023-07-19T11:56:35.145Z,27.49
2023-07-19T11:59:01.857Z,27.43
2023-07-19T12:01:28.562Z,27.28
2023-07-19T12:03:55.318Z,27.23
2023-07-19T12:06:22.170Z,27.19
2023-07-19T12:08:48.827Z,27.12
2023-07-19T12:11:15.488Z,27.07
2023-07-19T12:13:42.053Z,27.03
2023-07-19T12:16:08.597Z,26.96
2023-07-19T12:18:35.192Z,26.93
2023-07-19T12:21:01.884Z,26.87
2023-07-19T12:25:58.278Z,26.82
2023-07-19T12:28:24.793Z,26.78
2023-07-19T12:30:51.487Z,26.77
2023-07-19T12:33:18.448Z,26.73
2023-07-19T12:35:47.189Z,26.59
2023-07-19T12:38:15.098Z,26.52
2023-07-19T12:40:42.236Z,26.51
2023-07-19T12:43:08.897Z,26.49
2023-07-19T12:45:35.405Z,26.46
2023-07-19T12:48:03.668Z,26.41
2023-07-19T12:50:30.343Z,26.32
2023-07-19T12:52:56.854Z,26.20
2023-07-19T12:55:23.382Z,26.12
2023-07-19T12:57:50.124Z,26.14
2023-07-19T13:00:17.552Z,26.12
2023-07-19T13:02:45.835Z,26.13
2023-07-19T13:05:12.795Z,26.14
2023-07-19T13:07:39.505Z,26.10
2023-07-19T13:10:06.457Z,26.08
2023-07-19T13:12:33.029Z,25.97
2023-07-19T13:14:59.569Z,25.92
2023-07-19T13:17:26.344Z,25.84
2023-07-19T13:19:53.059Z,25.77
2023-07-19T13:22:20.322Z,25.65
2023-07-19T13:24:46.969Z,25.60
2023-07-19T13:29:58.332Z,25.55
2023-07-19T13:32:25.010Z,25.58
2023-07-19T13:34:51.611Z,25.57
2023-07-19T13:37:18.120Z,25.38
2023-07-19T13:39:45.566Z,25.44
2023-07-19T13:42:12.131Z,25.29
2023-07-19T13:44:38.620Z,25.46
2023-07-19T13:47:05.463Z,25.45
2023-07-19T13:49:32.023Z,25.39
2023-07-19T13:51:58.556Z,25.46
2023-07-19T13:54:25.106Z,25.15
2023-07-19T13:56:51.736Z,25.33
2023-07-19T13:59:18.251Z,25.17
2023-07-19T14:01:44.829Z,24.98
2023-07-19T14:04:11.573Z,24.97
2023-07-19T14:06:39.451Z,24.68
2023-07-19T14:09:06.135Z,24.55
2023-07-19T14:11:32.973Z,24.60
2023-07-19T14:13:59.534Z,24.70
2023-07-19T14:16:26.410Z,24.48
2023-07-19T14:18:53.258Z,24.58
2023-07-19T14:21:20.029Z,24.28
2023-07-19T14:23:46.616Z,24.37
2023-07-19T14:26:13.177Z,24.42
2023-07-19T14:28:39.694Z,24.22
2023-07-19T14:31:06.345Z,23.96
2023-07-19T14:33:32.903Z,24.20
2023-07-19T14:36:00.689Z,24.10
2023-07-19T14:38:29.489Z,24.04
2023-07-19T14:40:56.923Z,24.03
2023-07-19T14:43:24.652Z,23.89
2023-07-19T14:45:54.588Z,23.89
2023-07-19T14:48:22.204Z,24.03
2023-07-19T14:50:56.258Z,23.97
2023-07-19T14:53:23.425Z,24.04
2023-07-19T14:55:52.621Z,24.17
2023-07-19T14:58:19.702Z,23.90
2023-07-19T15:03:28.251Z,23.95
2023-07-19T15:05:57.206Z,23.91
2023-07-19T15:08:23.797Z,23.94
2023-07-19T15:10:50.462Z,23.96
2023-07-19T15:13:20.463Z,24.01
2023-07-19T15:15:47.563Z,23.87
2023-07-19T15:18:14.610Z,23.90
2023-07-19T15:20:42.701Z,23.63
2023-07-19T15:23:09.868Z,23.67
2023-07-19T15:25:36.528Z,23.68
2023-07-19T15:28:18.258Z,23.68
2023-07-19T15:30:47.761Z,23.80
2023-07-19T15:33:14.269Z,23.77
2023-07-19T15:35:40.891Z,23.77
2023-07-19T15:38:07.338Z,23.72
2023-07-19T15:40:33.902Z,23.69
2023-07-19T15:43:01.104Z,23.61
2023-07-19T15:45:27.606Z,23.58
2023-07-19T15:47:54.586Z,23.59
2023-07-19T15:50:21.799Z,23.58
2023-07-19T15:52:48.290Z,23.55
2023-07-19T15:55:14.761Z,23.51
2023-07-19T15:57:41.238Z,23.51
2023-07-19T16:00:10.264Z,23.52
2023-07-19T16:02:36.736Z,23.50
2023-07-19T16:05:03.397Z,23.53
2023-07-19T16:07:29.922Z,23.55
2023-07-19T16:09:56.580Z,23.50
2023-07-19T16:12:23.109Z,23.50
2023-07-19T16:14:49.735Z,23.49
2023-07-19T16:17:16.537Z,23.48
2023-07-19T16:19:43.022Z,23.46
2023-07-19T16:22:09.483Z,23.42
2023-07-19T16:24:35.982Z,23.40
2023-07-19T16:27:12.860Z,23.36
2023-07-19T16:29:46.358Z,23.35
2023-07-19T16:32:17.566Z,23.33
2023-07-19T16:34:49.003Z,23.29
2023-07-19T16:37:20.221Z,23.25
2023-07-19T16:39:51.717Z,23.24
2023-07-19T16:42:22.389Z,23.21
2023-07-19T16:44:55.403Z,23.20
2023-07-19T16:47:30.576Z,23.14
2023-07-19T16:49:59.071Z,23.07
2023-07-19T16:52:29.343Z,23.00
2023-07-19T16:54:58.364Z,22.93
2023-07-19T16:57:33.672Z,22.86
2023-07-19T17:06:47.972Z,22.66
2023-07-19T17:09:17.682Z,22.66
2023-07-19T17:11:45.881Z,22.64
2023-07-19T17:14:16.529Z,22.62
2023-07-19T17:16:58.114Z,22.57
2023-07-19T17:19:37.450Z,22.57
2023-07-19T17:22:06.751Z,22.55
2023-07-19T17:24:35.649Z,22.50
2023-07-19T17:27:04.565Z,22.48
2023-07-19T17:29:33.901Z,22.43
2023-07-19T17:32:02.448Z,22.44
2023-07-19T17:34:32.451Z,22.42
2023-07-19T17:37:01.818Z,22.40
2023-07-19T17:39:30.116Z,22.38
2023-07-19T17:41:59.097Z,22.30
2023-07-19T17:45:02.093Z,22.23
2023-07-19T17:47:44.636Z,22.20
2023-07-19T17:50:25.845Z,22.18
2023-07-19T17:53:09.401Z,22.15
2023-07-19T17:55:51.940Z,22.14
2023-07-19T17:58:21.868Z,22.05
2023-07-19T18:01:00.766Z,22.00
2023-07-19T18:03:40.671Z,21.98
2023-07-19T18:06:12.538Z,21.92
2023-07-19T18:08:50.538Z,21.89
2023-07-19T18:11:30.060Z,21.82
2023-07-19T18:14:05.862Z,21.75
2023-07-19T18:16:39.545Z,21.67
2023-07-19T18:19:11.560Z,21.59
2023-07-19T18:22:02.348Z,21.50
2023-07-19T18:24:33.839Z,21.43
2023-07-19T18:29:50.287Z,21.34
2023-07-19T18:32:24.729Z,21.27
2023-07-19T18:34:54.734Z,21.19
2023-07-19T18:37:25.323Z,21.10
2023-07-19T18:39:56.549Z,21.03
2023-07-19T18:42:25.725Z,20.92
2023-07-19T18:44:55.249Z,20.89
2023-07-19T18:47:24.482Z,20.81
2023-07-19T18:49:52.909Z,20.73
2023-07-19T18:52:24.389Z,20.64
2023-07-19T18:54:58.304Z,20.55
2023-07-19T18:57:27.862Z,20.44
2023-07-19T18:59:56.149Z,20.33
2023-07-19T19:02:24.103Z,20.22
2023-07-19T19:04:53.471Z,20.20
2023-07-19T19:07:21.591Z,20.14
2023-07-19T19:09:50.797Z,20.10
2023-07-19T19:12:18.822Z,19.98
2023-07-19T19:14:52.977Z,19.87
2023-07-19T19:20:03.950Z,19.65
2023-07-19T19:22:36.384Z,19.54
2023-07-19T19:25:07.461Z,19.49
2023-07-19T19:27:39.630Z,19.40
2023-07-19T19:30:07.317Z,19.33
2023-07-19T19:32:34.431Z,19.19
2023-07-19T19:35:03.021Z,19.15
2023-07-19T19:37:31.594Z,19.08
2023-07-19T19:39:59.606Z,19.01
2023-07-19T19:42:30.441Z,18.93
2023-07-19T19:44:58.302Z,18.86
2023-07-19T19:47:25.684Z,18.77
2023-07-19T19:49:52.943Z,18.69
2023-07-19T19:52:20.958Z,18.60
2023-07-19T19:54:48.900Z,18.56
2023-07-19T19:57:18.030Z,18.45
2023-07-19T20:02:40.528Z,18.26
2023-07-19T20:05:07.868Z,18.15
2023-07-19T20:07:35.054Z,18.05
2023-07-19T20:10:17.277Z,17.98
2023-07-19T20:12:45.885Z,17.86
2023-07-19T20:15:15.871Z,17.77
2023-07-19T20:17:43.614Z,17.70
2023-07-19T20:22:47.736Z,17.61
2023-07-19T20:25:29.052Z,17.50
2023-07-19T20:28:04.081Z,17.50
2023-07-19T20:30:31.146Z,17.45
2023-07-19T20:32:59.041Z,17.39
2023-07-19T20:43:08.885Z,17.20
2023-07-19T20:45:38.687Z,17.13
2023-07-19T20:48:10.377Z,17.11
2023-07-19T20:50:37.814Z,17.06
2023-07-19T20:53:06.935Z,17.03
2023-07-19T20:55:37.105Z,16.97
2023-07-19T20:58:06.175Z,16.89
2023-07-19T21:00:38.569Z,16.76
2023-07-19T21:03:07.867Z,16.73
2023-07-19T21:05:48.234Z,16.68
2023-07-19T21:08:15.327Z,16.63
2023-07-19T21:10:44.687Z,16.58
2023-07-19T21:13:15.132Z,16.50
2023-07-19T21:15:46.520Z,16.44
2023-07-19T21:18:18.159Z,16.42
2023-07-19T21:20:50.081Z,16.36
2023-07-19T21:23:17.909Z,16.30
2023-07-19T21:25:46.247Z,16.22
2023-07-19T21:28:18.003Z,16.17
2023-07-19T21:30:50.153Z,16.12
2023-07-19T21:33:38.611Z,16.07
2023-07-19T21:36:08.404Z,16.06
2023-07-19T21:38:35.941Z,16.05
2023-07-19T21:41:05.039Z,15.99
2023-07-19T21:43:37.271Z,15.94
2023-07-19T21:49:48.199Z,15.88
2023-07-19T21:52:16.005Z,15.76
2023-07-19T21:54:50.072Z,15.75
2023-07-19T21:57:20.587Z,15.68
2023-07-19T22:03:04.778Z,15.56
2023-07-19T22:06:02.831Z,15.52
2023-07-19T22:14:31.443Z,15.47
2023-07-19T22:17:09.530Z,15.41
2023-07-19T22:19:39.663Z,15.36
2023-07-19T22:22:44.708Z,15.34
2023-07-19T22:25:34.492Z,15.35
2023-07-19T22:28:31.085Z,15.33
2023-07-19T22:31:03.291Z,15.21
2023-07-19T22:36:44.729Z,15.12
2023-07-19T22:42:30.449Z,14.98
2023-07-19T22:45:23.239Z,14.93
2023-07-19T22:50:40.833Z,14.85
2023-07-19T22:53:35.325Z,14.82
2023-07-19T22:56:05.816Z,14.83
2023-07-19T22:58:54.861Z,14.76
2023-07-19T23:02:10.002Z,14.70
2023-07-19T23:05:00.919Z,14.68
2023-07-19T23:10:12.459Z,14.58
2023-07-19T23:12:48.391Z,14.56
2023-07-19T23:15:55.049Z,14.45
2023-07-19T23:28:24.033Z,14.26
2023-07-19T23:34:37.630Z,14.17
2023-07-19T23:40:37.679Z,14.12
2023-07-19T23:57:30.526Z,13.95
